createdAt,value
2019-02-11T00:01:01.895Z,1.40
2019-02-11T00:03:31.574Z,1.47
2019-02-11T00:06:01.244Z,2.75
2019-02-11T00:08:30.864Z,2.62
2019-02-11T00:11:00.579Z,2.15
2019-02-11T00:13:30.233Z,1.98
2019-02-11T00:15:59.887Z,1.95
2019-02-11T00:18:29.560Z,2.55
2019-02-11T00:20:59.220Z,2.60
2019-02-11T00:23:28.859Z,2.20
2019-02-11T00:25:58.586Z,2.98
2019-02-11T00:28:28.251Z,2.10
2019-02-11T00:30:57.984Z,2.50
2019-02-11T00:33:27.612Z,1.52
2019-02-11T00:35:57.301Z,1.90
2019-02-11T00:38:26.991Z,1.30
2019-02-11T00:40:56.644Z,1.30
2019-02-11T00:43:26.329Z,2.08
2019-02-11T00:45:55.989Z,1.65
2019-02-11T00:48:25.680Z,2.08
2019-02-11T00:50:55.361Z,1.72
2019-02-11T00:53:25.112Z,2.08
2019-02-11T00:55:54.778Z,1.92
2019-02-11T00:58:24.478Z,2.60
2019-02-11T01:00:54.127Z,1.82
2019-02-11T01:03:23.837Z,2.12
2019-02-11T01:05:53.552Z,2.12
2019-02-11T01:08:23.207Z,2.20
2019-02-11T01:10:52.871Z,2.20
2019-02-11T01:13:27.797Z,2.20
2019-02-11T01:15:53.875Z,2.27
2019-02-11T01:18:23.552Z,1.85
2019-02-11T01:20:53.244Z,1.52
2019-02-11T01:23:22.882Z,1.57
2019-02-11T01:25:52.539Z,1.45
2019-02-11T01:28:22.246Z,1.00
2019-02-11T01:30:51.928Z,0.90
2019-02-11T01:33:21.587Z,0.90
2019-02-11T01:35:51.302Z,0.98
2019-02-11T01:38:20.939Z,0.90
2019-02-11T01:40:50.669Z,0.90
2019-02-11T01:43:20.389Z,0.90
2019-02-11T01:45:50.067Z,2.02
2019-02-11T01:48:19.732Z,0.90
2019-02-11T01:50:49.444Z,1.02
2019-02-11T01:53:19.066Z,1.40
2019-02-11T01:55:48.729Z,0.90
2019-02-11T01:58:18.383Z,1.17
2019-02-11T02:00:48.029Z,1.20
2019-02-11T02:03:17.687Z,1.42
2019-02-11T02:05:47.325Z,1.20
2019-02-11T02:08:17.005Z,1.00
2019-02-11T02:10:46.661Z,1.45
2019-02-11T02:13:16.337Z,1.72
2019-02-11T02:15:45.954Z,2.30
2019-02-11T02:18:15.599Z,2.08
2019-02-11T02:20:45.227Z,1.30
2019-02-11T02:23:14.883Z,1.90
2019-02-11T02:25:44.565Z,1.70
2019-02-11T02:28:14.313Z,1.40
2019-02-11T02:30:43.957Z,1.10
2019-02-11T02:33:13.633Z,1.40
2019-02-11T02:35:43.343Z,1.10
2019-02-11T02:38:13.036Z,1.07
2019-02-11T02:40:42.660Z,0.90
2019-02-11T02:43:12.370Z,1.00
2019-02-11T02:45:42.013Z,1.10
2019-02-11T02:48:11.682Z,1.22
2019-02-11T02:50:41.319Z,0.90
2019-02-11T02:53:11.017Z,0.90
2019-02-11T02:55:40.677Z,1.10
2019-02-11T02:58:10.306Z,1.00
2019-02-11T03:00:39.949Z,1.00
2019-02-11T03:03:09.583Z,1.75
2019-02-11T03:05:39.215Z,1.80
2019-02-11T03:08:08.839Z,0.90
2019-02-11T03:10:38.529Z,1.10
2019-02-11T03:13:09.887Z,1.00
2019-02-11T03:15:39.508Z,0.88
2019-02-11T03:18:09.180Z,1.35
2019-02-11T03:20:38.823Z,1.35
2019-02-11T03:23:08.453Z,1.00
2019-02-11T03:25:38.106Z,1.20
2019-02-11T03:28:07.806Z,1.40
2019-02-11T03:30:37.466Z,1.27
2019-02-11T03:33:07.139Z,1.55
2019-02-11T03:35:36.796Z,1.92
2019-02-11T03:38:06.454Z,4.12
2019-02-11T03:40:36.689Z,4.37
2019-02-11T03:43:06.354Z,4.08
2019-02-11T03:45:36.039Z,5.33
2019-02-11T03:48:05.745Z,4.33
2019-02-11T03:50:35.420Z,4.05
2019-02-11T03:53:05.086Z,6.42
2019-02-11T03:55:34.752Z,5.03
2019-02-11T03:58:04.468Z,5.95
2019-02-11T04:00:34.141Z,6.25
2019-02-11T04:03:03.802Z,6.40
2019-02-11T04:05:33.457Z,8.98
2019-02-11T04:08:03.129Z,8.15
2019-02-11T04:10:32.814Z,16.52
2019-02-11T04:13:02.475Z,9.80
2019-02-11T04:15:32.134Z,8.80
2019-02-11T04:18:01.835Z,8.58
2019-02-11T04:20:31.458Z,15.40
2019-02-11T04:23:01.118Z,12.88
2019-02-11T04:25:30.779Z,16.57
2019-02-11T04:28:00.446Z,12.55
2019-02-11T04:30:30.290Z,8.23
2019-02-11T04:32:59.953Z,9.10
2019-02-11T04:35:29.646Z,11.08
2019-02-11T04:37:59.331Z,7.65
2019-02-11T04:40:28.982Z,8.40
2019-02-11T04:42:58.610Z,13.13
2019-02-11T04:45:28.302Z,9.28
2019-02-11T04:47:57.969Z,13.00
2019-02-11T04:50:27.627Z,17.32
2019-02-11T04:52:57.292Z,8.38
2019-02-11T04:55:27.898Z,14.73
2019-02-11T04:57:57.553Z,10.65
2019-02-11T05:00:27.310Z,13.95
2019-02-11T05:02:56.960Z,12.23
2019-02-11T05:05:26.669Z,11.90
2019-02-11T05:07:59.324Z,8.88
2019-02-11T05:10:29.011Z,8.55
2019-02-11T05:12:58.665Z,7.83
2019-02-11T05:15:28.388Z,9.73
2019-02-11T05:17:58.060Z,7.95
2019-02-11T05:20:47.094Z,5.33
2019-02-11T05:23:16.759Z,7.53
2019-02-11T05:26:05.444Z,14.93
2019-02-11T05:28:35.095Z,9.20
2019-02-11T05:31:04.721Z,9.10
2019-02-11T05:33:53.370Z,7.72
2019-02-11T05:36:23.107Z,10.72
2019-02-11T05:38:52.797Z,2.72
2019-02-11T05:41:22.464Z,4.75
2019-02-11T05:43:52.099Z,4.40
2019-02-11T05:46:21.795Z,4.45
2019-02-11T05:48:51.450Z,5.40
2019-02-11T05:51:21.152Z,14.00
2019-02-11T05:53:50.808Z,7.33
2019-02-11T05:56:20.493Z,3.67
2019-02-11T05:58:50.171Z,6.70
2019-02-11T06:01:20.229Z,6.75
2019-02-11T06:03:49.907Z,6.53
2019-02-11T06:06:19.566Z,4.10
2019-02-11T06:08:49.217Z,8.70
2019-02-11T06:11:18.870Z,4.95
2019-02-11T06:13:48.544Z,8.80
2019-02-11T06:16:18.226Z,8.78
2019-02-11T06:18:47.895Z,6.70
2019-02-11T06:21:17.560Z,6.97
2019-02-11T06:23:47.237Z,4.60
2019-02-11T06:26:16.884Z,8.63
2019-02-11T06:28:46.602Z,9.60
2019-02-11T06:31:16.288Z,13.85
2019-02-11T06:33:46.032Z,6.62
2019-02-11T06:36:15.750Z,17.20
2019-02-11T06:38:45.462Z,12.45
2019-02-11T06:41:15.127Z,4.80
2019-02-11T06:43:44.816Z,6.70
2019-02-11T06:46:14.465Z,14.50
2019-02-11T06:48:44.134Z,8.20
2019-02-11T06:51:13.784Z,16.27
2019-02-11T06:53:43.525Z,14.40
2019-02-11T06:56:13.175Z,2.80
2019-02-11T06:58:42.809Z,10.28
2019-02-11T07:01:12.471Z,8.33
2019-02-11T07:03:42.236Z,6.90
2019-02-11T07:06:11.914Z,4.90
2019-02-11T07:08:41.577Z,11.35
2019-02-11T07:11:11.285Z,9.50
2019-02-11T07:13:40.960Z,10.38
2019-02-11T07:16:10.648Z,3.37
2019-02-11T07:18:40.348Z,6.05
2019-02-11T07:21:10.014Z,11.48
2019-02-11T07:23:39.830Z,9.70
2019-02-11T07:26:09.483Z,7.50
2019-02-11T07:28:39.176Z,7.75
2019-02-11T07:31:08.861Z,5.90
2019-02-11T07:33:38.561Z,6.55
2019-02-11T07:36:08.247Z,3.60
2019-02-11T07:38:37.966Z,10.28
2019-02-11T07:41:07.627Z,6.05
2019-02-11T07:43:44.472Z,5.92
2019-02-11T07:46:33.027Z,15.03
2019-02-11T07:49:02.758Z,13.32
2019-02-11T07:51:32.423Z,8.83
2019-02-11T07:54:02.199Z,6.60
2019-02-11T07:56:31.910Z,9.10
2019-02-11T07:59:01.599Z,6.05
2019-02-11T08:01:31.284Z,8.23
2019-02-11T08:04:00.993Z,10.63
2019-02-11T08:06:30.702Z,6.65
2019-02-11T08:09:00.370Z,5.05
2019-02-11T08:11:30.076Z,11.43
2019-02-11T08:13:59.733Z,18.10
2019-02-11T08:16:29.465Z,12.82
2019-02-11T08:18:59.115Z,17.10
2019-02-11T08:21:28.818Z,10.68
2019-02-11T08:23:58.451Z,8.00
2019-02-11T08:26:28.162Z,11.18
2019-02-11T08:28:57.852Z,8.50
2019-02-11T08:31:27.500Z,10.10
2019-02-11T08:33:57.150Z,5.40
2019-02-11T08:36:26.898Z,8.95
2019-02-11T08:38:56.687Z,11.68
2019-02-11T08:41:26.407Z,9.33
2019-02-11T08:43:56.045Z,7.67
2019-02-11T08:46:25.772Z,13.25
2019-02-11T08:48:55.450Z,10.80
2019-02-11T08:51:26.156Z,8.28
2019-02-11T08:53:55.907Z,12.53
2019-02-11T08:56:25.583Z,9.53
2019-02-11T08:58:55.194Z,7.45
2019-02-11T09:01:24.862Z,8.53
2019-02-11T09:03:54.618Z,9.50
2019-02-11T09:06:24.313Z,13.38
2019-02-11T09:08:53.950Z,12.07
2019-02-11T09:11:23.636Z,5.90
2019-02-11T09:13:53.294Z,16.42
2019-02-11T09:16:22.983Z,7.55
2019-02-11T09:18:52.610Z,8.53
2019-02-11T09:21:22.308Z,10.70
2019-02-11T09:23:51.952Z,12.98
2019-02-11T09:26:21.617Z,8.43
2019-02-11T09:28:51.248Z,6.28
2019-02-11T09:31:20.978Z,10.35
2019-02-11T09:33:50.618Z,7.00
2019-02-11T09:36:20.271Z,7.58
2019-02-11T09:38:49.925Z,10.55
2019-02-11T09:41:19.597Z,20.48
2019-02-11T09:43:49.209Z,7.17
2019-02-11T09:46:19.980Z,13.62
2019-02-11T09:48:49.626Z,17.10
2019-02-11T09:51:19.424Z,12.82
2019-02-11T09:53:49.048Z,15.35
2019-02-11T09:56:18.759Z,12.63
2019-02-11T09:58:48.373Z,13.43
2019-02-11T10:01:18.101Z,22.22
2019-02-11T10:03:47.790Z,15.08
2019-02-11T10:06:17.438Z,11.53
2019-02-11T10:08:47.104Z,15.48
2019-02-11T10:11:16.918Z,9.43
2019-02-11T10:13:46.567Z,6.55
2019-02-11T10:16:16.234Z,12.80
2019-02-11T10:18:45.961Z,14.35
2019-02-11T10:21:15.697Z,15.48
2019-02-11T10:23:45.377Z,10.45
2019-02-11T10:26:15.028Z,10.68
2019-02-11T10:28:44.705Z,12.45
2019-02-11T10:31:14.476Z,7.30
2019-02-11T10:33:44.322Z,15.63
2019-02-11T10:36:14.021Z,14.95
2019-02-11T10:38:43.699Z,16.17
2019-02-11T10:41:13.353Z,6.83
2019-02-11T10:43:43.004Z,16.82
2019-02-11T10:46:20.645Z,13.60
2019-02-11T10:48:44.207Z,17.45
2019-02-11T10:51:13.805Z,21.87
2019-02-11T10:53:43.475Z,10.08
2019-02-11T10:56:13.162Z,9.53
2019-02-11T10:58:42.850Z,7.75
2019-02-11T11:01:13.383Z,13.08
2019-02-11T11:03:43.130Z,16.23
2019-02-11T11:06:12.856Z,10.15
2019-02-11T11:08:42.614Z,20.10
2019-02-11T11:11:12.269Z,11.70
2019-02-11T11:13:41.921Z,18.55
2019-02-11T11:16:11.560Z,13.78
2019-02-11T11:18:41.216Z,7.53
2019-02-11T11:21:13.038Z,13.10
2019-02-11T11:23:42.735Z,15.55
2019-02-11T11:26:12.452Z,14.05
2019-02-11T11:28:42.127Z,14.60
2019-02-11T11:31:12.271Z,10.18
2019-02-11T11:33:42.044Z,13.05
2019-02-11T11:36:11.829Z,18.00
2019-02-11T11:38:41.511Z,10.98
2019-02-11T11:41:11.246Z,12.30
2019-02-11T11:43:40.964Z,10.18
2019-02-11T11:46:10.803Z,9.78
2019-02-11T11:48:40.458Z,14.83
2019-02-11T11:51:10.167Z,16.37
2019-02-11T11:53:39.949Z,10.70
2019-02-11T11:56:09.589Z,9.15
2019-02-11T11:58:39.494Z,13.88
2019-02-11T12:01:09.143Z,11.70
2019-02-11T12:03:38.857Z,10.95
2019-02-11T12:06:08.583Z,13.70
2019-02-11T12:08:38.242Z,16.05
2019-02-11T12:11:07.942Z,14.53
2019-02-11T12:13:37.611Z,9.15
2019-02-11T12:16:07.294Z,8.23
2019-02-11T12:18:36.967Z,16.10
2019-02-11T12:21:06.668Z,8.80
2019-02-11T12:23:36.439Z,16.20
2019-02-11T12:26:06.176Z,10.38
2019-02-11T12:28:35.830Z,13.88
2019-02-11T12:31:05.548Z,10.38
2019-02-11T12:33:35.250Z,11.28
2019-02-11T12:36:04.922Z,11.20
2019-02-11T12:38:34.632Z,8.20
2019-02-11T12:41:04.297Z,12.20
2019-02-11T12:43:33.995Z,7.42
2019-02-11T12:46:03.694Z,7.37
2019-02-11T12:48:33.358Z,14.33
2019-02-11T12:51:03.873Z,13.00
2019-02-11T12:53:33.851Z,10.70
2019-02-11T12:56:03.781Z,10.03
2019-02-11T12:58:33.495Z,8.73
2019-02-11T13:01:03.586Z,8.08
2019-02-11T13:03:33.229Z,9.28
2019-02-11T13:06:02.912Z,7.33
2019-02-11T13:08:32.610Z,13.98
2019-02-11T13:11:02.267Z,6.80
2019-02-11T13:13:31.945Z,9.80
2019-02-11T13:16:03.074Z,15.15
2019-02-11T13:18:33.150Z,6.25
2019-02-11T13:21:03.099Z,10.15
2019-02-11T13:23:32.842Z,5.60
2019-02-11T13:26:02.561Z,8.30
2019-02-11T13:28:32.253Z,11.57
2019-02-11T13:31:01.945Z,10.70
2019-02-11T13:33:31.626Z,13.25
2019-02-11T13:36:01.316Z,4.70
2019-02-11T13:38:31.009Z,3.05
2019-02-11T13:41:00.672Z,4.15
2019-02-11T13:43:30.317Z,7.37
2019-02-11T13:45:59.979Z,6.40
2019-02-11T13:48:33.822Z,6.85
2019-02-11T13:51:01.013Z,15.53
2019-02-11T13:53:30.685Z,4.85
2019-02-11T13:56:04.739Z,6.85
2019-02-11T13:58:31.742Z,7.45
2019-02-11T14:01:01.413Z,6.78
2019-02-11T14:03:31.050Z,7.62
2019-02-11T14:06:00.732Z,3.72
2019-02-11T14:08:30.445Z,8.03
2019-02-11T14:11:00.117Z,6.62
2019-02-11T14:13:30.116Z,4.95
2019-02-11T14:15:59.781Z,6.87
2019-02-11T14:18:29.485Z,3.17
2019-02-11T14:20:59.147Z,9.98
2019-02-11T14:23:28.839Z,4.62
2019-02-11T14:25:58.513Z,9.73
2019-02-11T14:28:28.146Z,4.65
2019-02-11T14:30:57.817Z,3.65
2019-02-11T14:33:27.571Z,1.72
2019-02-11T14:35:57.239Z,3.92
2019-02-11T14:38:26.963Z,4.75
2019-02-11T14:40:56.585Z,3.52
2019-02-11T14:43:26.282Z,7.20
2019-02-11T14:45:55.935Z,3.08
2019-02-11T14:48:28.285Z,2.67
2019-02-11T14:50:56.962Z,2.15
2019-02-11T14:53:26.728Z,3.67
2019-02-11T14:55:56.405Z,4.65
2019-02-11T14:58:26.114Z,2.02
2019-02-11T15:00:56.013Z,1.65
2019-02-11T15:03:25.676Z,4.60
2019-02-11T15:05:55.329Z,2.62
2019-02-11T15:08:25.017Z,1.92
2019-02-11T15:10:54.654Z,1.80
2019-02-11T15:13:24.294Z,1.10
2019-02-11T15:15:53.932Z,2.95
2019-02-11T15:18:23.602Z,1.10
2019-02-11T15:20:53.250Z,2.85
2019-02-11T15:23:22.938Z,3.60
2019-02-11T15:25:52.584Z,3.10
2019-02-11T15:28:22.267Z,3.42
2019-02-11T15:30:51.932Z,1.77
2019-02-11T15:33:21.600Z,4.75
2019-02-11T15:35:51.227Z,1.42
2019-02-11T15:38:20.942Z,1.60
2019-02-11T15:40:50.612Z,1.15
2019-02-11T15:43:20.329Z,3.98
2019-02-11T15:45:49.974Z,4.95
2019-02-11T15:48:19.636Z,1.62
2019-02-11T15:50:49.286Z,3.45
2019-02-11T15:53:19.073Z,4.28
2019-02-11T15:55:48.748Z,2.40
2019-02-11T15:58:18.421Z,1.10
2019-02-11T16:00:48.061Z,1.52
2019-02-11T16:03:17.698Z,1.20
2019-02-11T16:05:49.709Z,1.50
2019-02-11T16:08:18.686Z,1.50
2019-02-11T16:10:48.343Z,5.80
2019-02-11T16:13:17.999Z,2.65
2019-02-11T16:15:47.712Z,1.10
2019-02-11T16:18:17.349Z,1.85
2019-02-11T16:20:47.033Z,2.85
2019-02-11T16:23:16.680Z,1.30
2019-02-11T16:25:46.711Z,3.08
2019-02-11T16:28:16.385Z,2.05
2019-02-11T16:30:45.990Z,1.60
2019-02-11T16:33:15.714Z,6.35
2019-02-11T16:35:45.351Z,4.28
2019-02-11T16:38:15.051Z,1.82
2019-02-11T16:40:44.689Z,7.67
2019-02-11T16:43:14.377Z,3.65
2019-02-11T16:45:44.087Z,1.70
2019-02-11T16:48:13.803Z,1.95
2019-02-11T16:50:43.457Z,5.55
2019-02-11T16:53:13.106Z,2.12
2019-02-11T16:55:43.154Z,1.70
2019-02-11T16:58:12.827Z,2.62
2019-02-11T17:00:42.488Z,1.70
2019-02-11T17:03:12.113Z,2.27
2019-02-11T17:05:41.813Z,4.97
2019-02-11T17:08:11.458Z,1.50
2019-02-11T17:10:41.505Z,1.75
2019-02-11T17:13:11.208Z,8.43
2019-02-11T17:15:40.937Z,2.12
2019-02-11T17:18:10.611Z,2.55
2019-02-11T17:20:40.329Z,2.95
2019-02-11T17:23:09.966Z,4.40
2019-02-11T17:25:39.602Z,1.65
2019-02-11T17:28:09.777Z,2.77
2019-02-11T17:30:39.484Z,4.53
2019-02-11T17:33:09.179Z,1.65
2019-02-11T17:35:38.825Z,1.25
2019-02-11T17:38:08.489Z,2.90
2019-02-11T17:40:38.188Z,2.17
2019-02-11T17:43:07.835Z,5.17
2019-02-11T17:45:37.559Z,2.12
2019-02-11T17:48:07.246Z,4.00
2019-02-11T17:50:37.019Z,2.50
2019-02-11T17:53:07.337Z,1.45
2019-02-11T17:55:37.015Z,2.83
2019-02-11T17:58:06.812Z,1.75
2019-02-11T18:00:41.938Z,1.70
2019-02-11T18:03:11.658Z,4.55
2019-02-11T18:05:41.327Z,2.58
2019-02-11T18:08:11.033Z,4.28
2019-02-11T18:10:40.719Z,1.50
2019-02-11T18:13:10.362Z,2.35
2019-02-11T18:15:40.050Z,1.65
2019-02-11T18:18:09.771Z,1.60
2019-02-11T18:20:39.447Z,2.22
2019-02-11T18:23:09.142Z,1.50
2019-02-11T18:25:38.876Z,1.47
2019-02-11T18:28:08.541Z,1.70
2019-02-11T18:30:38.153Z,2.05
2019-02-11T18:33:07.893Z,2.90
2019-02-11T18:35:37.640Z,1.75
2019-02-11T18:38:08.938Z,1.70
2019-02-11T18:40:38.946Z,1.55
2019-02-11T18:43:08.823Z,2.75
2019-02-11T18:45:38.539Z,4.53
2019-02-11T18:48:08.237Z,1.90
2019-02-11T18:50:37.913Z,1.75
2019-02-11T18:53:07.609Z,1.75
2019-02-11T18:55:37.289Z,2.27
2019-02-11T18:58:06.922Z,2.05
2019-02-11T19:00:36.578Z,1.55
2019-02-11T19:03:06.309Z,2.08
2019-02-11T19:05:35.937Z,1.55
2019-02-11T19:08:05.601Z,2.50
2019-02-11T19:10:35.321Z,3.62
2019-02-11T19:13:05.141Z,4.80
2019-02-11T19:15:34.793Z,1.52
2019-02-11T19:18:04.594Z,2.98
2019-02-11T19:20:34.238Z,4.15
2019-02-11T19:23:03.861Z,4.05
2019-02-11T19:25:33.511Z,4.35
2019-02-11T19:28:03.170Z,2.80
2019-02-11T19:30:32.787Z,7.08
2019-02-11T19:33:02.412Z,4.70
2019-02-11T19:35:32.002Z,3.65
2019-02-11T19:38:01.676Z,3.55
2019-02-11T19:40:31.369Z,6.67
2019-02-11T19:43:01.047Z,4.42
2019-02-11T19:45:30.685Z,4.65
2019-02-11T19:48:00.393Z,3.50
2019-02-11T19:50:32.780Z,5.03
2019-02-11T19:53:02.501Z,4.62
2019-02-11T19:55:32.188Z,3.95
2019-02-11T19:58:01.901Z,8.60
2019-02-11T20:00:31.930Z,4.65
2019-02-11T20:03:01.682Z,2.65
2019-02-11T20:05:31.313Z,4.97
2019-02-11T20:08:00.990Z,5.22
2019-02-11T20:10:30.654Z,7.70
2019-02-11T20:13:00.340Z,13.45
2019-02-11T20:15:30.000Z,15.05
2019-02-11T20:17:59.656Z,5.78
2019-02-11T20:20:29.400Z,4.05
2019-02-11T20:22:59.081Z,4.10
2019-02-11T20:25:28.698Z,5.35
2019-02-11T20:27:58.365Z,8.93
2019-02-11T20:30:28.150Z,8.13
2019-02-11T20:32:57.801Z,9.10
2019-02-11T20:35:27.537Z,8.08
2019-02-11T20:37:58.899Z,5.50
2019-02-11T20:40:28.488Z,10.80
2019-02-11T20:42:58.139Z,8.78
2019-02-11T20:45:28.136Z,10.10
2019-02-11T20:47:57.769Z,13.05
2019-02-11T20:50:27.386Z,8.43
2019-02-11T20:52:57.207Z,6.83
2019-02-11T20:55:26.927Z,13.60
2019-02-11T20:57:57.771Z,15.40
2019-02-11T21:00:27.667Z,8.13
2019-02-11T21:02:57.444Z,14.73
2019-02-11T21:05:27.122Z,7.50
2019-02-11T21:07:56.775Z,14.60
2019-02-11T21:10:26.488Z,12.47
2019-02-11T21:12:56.180Z,9.15
2019-02-11T21:15:25.846Z,8.88
2019-02-11T21:17:55.547Z,12.30
2019-02-11T21:20:34.026Z,13.88
2019-02-11T21:23:04.046Z,12.58
2019-02-11T21:25:33.682Z,10.03
2019-02-11T21:28:03.900Z,13.55
2019-02-11T21:30:33.633Z,10.48
2019-02-11T21:33:03.283Z,8.73
2019-02-11T21:35:32.979Z,10.93
2019-02-11T21:38:02.738Z,19.07
2019-02-11T21:40:32.416Z,9.10
2019-02-11T21:43:02.084Z,9.98
2019-02-11T21:45:31.778Z,10.10
2019-02-11T21:48:01.440Z,17.87
2019-02-11T21:50:31.127Z,3.87
2019-02-11T21:53:00.935Z,8.43
2019-02-11T21:55:30.571Z,17.77
2019-02-11T21:58:00.181Z,5.12
2019-02-11T22:00:30.011Z,17.45
2019-02-11T22:02:59.773Z,13.45
2019-02-11T22:05:29.534Z,10.00
2019-02-11T22:07:59.319Z,4.75
2019-02-11T22:10:28.985Z,12.95
2019-02-11T22:12:59.057Z,10.38
2019-02-11T22:15:28.704Z,8.45
2019-02-11T22:17:58.320Z,9.10
2019-02-11T22:20:34.541Z,10.95
2019-02-11T22:22:59.331Z,10.98
2019-02-11T22:25:28.980Z,18.35
2019-02-11T22:27:58.705Z,7.92
2019-02-11T22:30:28.345Z,6.90
2019-02-11T22:32:58.031Z,6.60
2019-02-11T22:35:27.651Z,6.80
2019-02-11T22:37:57.309Z,10.60
2019-02-11T22:40:26.941Z,10.20
2019-02-11T22:42:56.593Z,13.62
2019-02-11T22:45:26.279Z,11.22
2019-02-11T22:47:55.936Z,14.45
2019-02-11T22:50:25.650Z,12.45
2019-02-11T22:52:55.284Z,8.15
2019-02-11T22:55:24.938Z,8.20
2019-02-11T22:57:54.638Z,18.20
2019-02-11T23:00:52.238Z,12.53
2019-02-11T23:03:21.898Z,6.62
2019-02-11T23:05:51.567Z,6.42
2019-02-11T23:08:21.255Z,3.58
2019-02-11T23:10:51.007Z,6.55
2019-02-11T23:13:20.675Z,12.03
2019-02-11T23:15:50.368Z,4.90
2019-02-11T23:18:20.051Z,9.55
2019-02-11T23:20:52.071Z,5.95
2019-02-11T23:23:20.993Z,8.53
2019-02-11T23:25:50.695Z,10.20
2019-02-11T23:28:20.382Z,11.00
2019-02-11T23:30:50.071Z,8.58
2019-02-11T23:33:19.687Z,5.25
2019-02-11T23:35:49.362Z,5.97
2019-02-11T23:38:19.076Z,13.18
2019-02-11T23:40:48.735Z,14.58
2019-02-11T23:43:18.427Z,7.85
2019-02-11T23:45:48.172Z,9.33
2019-02-11T23:48:17.850Z,4.92
2019-02-11T23:50:47.584Z,4.37
2019-02-11T23:53:17.229Z,11.57
2019-02-11T23:55:46.954Z,7.83
2019-02-11T23:58:16.614Z,10.08
